Time;durP1;ratioP1;P1;durP2;ratioP2;P2;SDS_P1;SDS_P2;PMS_P1;PMS_P2;Temp;Humidity;BMP_temperature;BMP_pressure;BME280_temperature;BME280_humidity;BME280_pressure;Samples;Min_cycle;Max_cycle;Signal;HPM_P1;HPM_P2
2022/07/21 00:00:53;;;;;;;3.17;1.17;;;;;;;16.92;69.42;98732.53;4837874;29;20127;-77
2022/07/21 00:03:19;;;;;;;1.20;1.10;;;;;;;16.85;69.38;98719.75;4842039;29;20042;-79
2022/07/21 00:05:45;;;;;;;2.03;1.17;;;;;;;16.88;69.25;98723.16;4840863;29;20371;-78
2022/07/21 00:08:13;;;;;;;2.60;1.45;;;;;;;16.90;69.46;98723.88;4839713;29;20050;-80
2022/07/21 00:10:41;;;;;;;1.48;1.20;;;;;;;16.97;69.49;98733.19;4850795;29;20041;-80
2022/07/21 00:13:07;;;;;;;2.88;1.30;;;;;;;16.95;69.37;98728.03;4835982;29;20029;-80
2022/07/21 00:15:33;;;;;;;3.35;1.10;;;;;;;16.99;69.31;98728.69;4837173;29;20049;-80
2022/07/21 00:17:59;;;;;;;2.38;1.25;;;;;;;17.04;69.39;98725.81;4847971;29;20034;-79
2022/07/21 00:20:30;;;;;;;2.17;1.20;;;;;;;17.04;69.26;98731.94;4843128;29;20119;-81
2022/07/21 00:22:56;;;;;;;1.40;1.05;;;;;;;17.06;69.32;98729.22;4830341;29;20070;-81
2022/07/21 00:25:23;;;;;;;2.08;1.10;;;;;;;17.02;69.29;98728.53;4828184;29;20053;-79
2022/07/21 00:27:49;;;;;;;1.48;1.08;;;;;;;17.01;69.36;98729.47;4826728;29;20429;-79
2022/07/21 00:30:15;;;;;;;1.42;1.08;;;;;;;16.94;69.12;98728.91;4829712;29;20492;-79
2022/07/21 00:32:43;;;;;;;1.85;1.13;;;;;;;16.97;69.38;98733.19;4800484;29;20042;-79
2022/07/21 00:35:11;;;;;;;1.70;1.10;;;;;;;17.01;69.54;98732.94;4825723;29;20541;-80
2022/07/21 00:37:38;;;;;;;1.50;1.30;;;;;;;17.01;69.20;98734.72;4827039;29;20149;-80
2022/07/21 00:40:07;;;;;;;3.10;1.15;;;;;;;16.98;69.48;98732.25;4827470;29;20039;-80
2022/07/21 00:42:34;;;;;;;3.42;1.40;;;;;;;16.94;69.11;98725.44;4828226;29;20053;-80
2022/07/21 00:45:01;;;;;;;2.20;1.35;;;;;;;16.87;69.43;98730.16;4826908;29;20049;-80
2022/07/21 00:47:31;;;;;;;3.17;1.20;;;;;;;16.87;69.47;98727.53;4808998;29;20050;-80
2022/07/21 00:50:00;;;;;;;1.42;1.33;;;;;;;16.85;69.61;98722.38;4825228;29;20061;-81
2022/07/21 00:52:26;;;;;;;1.27;1.00;;;;;;;16.82;69.71;98732.16;4827622;29;20105;-79
2022/07/21 00:54:52;;;;;;;1.23;1.05;;;;;;;16.86;69.64;98731.09;4809543;29;20046;-78
2022/07/21 00:57:19;;;;;;;3.17;1.48;;;;;;;16.89;69.89;98727.44;4810705;29;20050;-76
2022/07/21 00:59:46;;;;;;;1.38;1.10;;;;;;;16.94;69.77;98725.44;4827089;29;20469;-75
2022/07/21 01:02:12;;;;;;;1.40;1.30;;;;;;;16.96;69.77;98728.84;4825553;29;20219;-78
2022/07/21 01:04:41;;;;;;;2.78;1.00;;;;;;;16.95;69.73;98727.13;4826510;29;20097;-78
2022/07/21 01:07:07;;;;;;;2.35;1.35;;;;;;;16.94;69.65;98722.81;4825733;29;20082;-78
2022/07/21 01:09:35;;;;;;;1.13;1.02;;;;;;;17.02;69.88;98731.19;4826553;29;20045;-76
2022/07/21 01:12:03;;;;;;;1.63;1.40;;;;;;;17.04;69.78;98734.56;4825456;29;20506;-78
2022/07/21 01:14:30;;;;;;;2.85;1.27;;;;;;;17.04;69.66;98733.72;4823351;29;20534;-77
2022/07/21 01:16:56;;;;;;;1.67;1.13;;;;;;;17.03;69.49;98730.25;4825844;29;20065;-80
2022/07/21 01:19:22;;;;;;;1.52;1.20;;;;;;;17.02;69.58;98736.44;4827376;29;20062;-78
2022/07/21 01:21:49;;;;;;;1.15;1.05;;;;;;;17.06;69.35;98727.47;4825772;29;20057;-78
2022/07/21 01:24:15;;;;;;;1.63;1.00;;;;;;;17.07;69.44;98730.91;4825472;29;20045;-77
2022/07/21 01:26:43;;;;;;;2.97;1.10;;;;;;;17.11;69.33;98732.47;4826097;29;20133;-78
2022/07/21 01:29:11;;;;;;;1.90;1.30;;;;;;;17.09;69.23;98729.94;4826222;29;20046;-77
2022/07/21 01:31:40;;;;;;;1.42;1.00;;;;;;;17.11;69.31;98721.94;4824085;29;20050;-79
2022/07/21 01:34:08;;;;;;;2.15;0.98;;;;;;;17.11;69.25;98728.03;4810906;29;20222;-78
2022/07/21 01:36:34;;;;;;;1.00;0.80;;;;;;;17.14;69.23;98735.78;4811049;29;20384;-77
2022/07/21 01:41:45;;;;;;;1.60;0.90;;;;;;;17.16;69.09;98738.34;4824937;29;20050;-79
2022/07/21 01:44:13;;;;;;;2.00;0.90;;;;;;;17.17;69.16;98740.88;4827592;29;20202;-76
2022/07/21 01:46:43;;;;;;;0.80;0.80;;;;;;;17.15;69.05;98734.00;4839636;29;20049;-76
2022/07/21 01:49:09;;;;;;;1.02;0.80;;;;;;;17.20;69.12;98739.00;4829350;29;20046;-76
2022/07/21 01:51:36;;;;;;;0.80;0.80;;;;;;;17.13;69.08;98726.19;4852948;29;20072;-77
2022/07/21 01:54:03;;;;;;;1.08;0.90;;;;;;;17.17;68.79;98730.34;4841650;29;20073;-77
2022/07/21 01:56:30;;;;;;;1.02;0.93;;;;;;;17.20;69.05;98732.00;4826765;29;20120;-78
2022/07/21 01:58:57;;;;;;;3.70;0.80;;;;;;;17.19;68.87;98724.16;4835916;29;20144;-79
2022/07/21 02:01:28;;;;;;;3.03;1.20;;;;;;;17.21;68.90;98727.56;4836598;29;20065;-78
2022/07/21 02:03:59;;;;;;;1.48;1.10;;;;;;;17.26;69.09;98722.91;4833910;29;20140;-79
2022/07/21 02:06:27;;;;;;;1.25;0.90;;;;;;;17.26;68.92;98723.75;4826491;29;20098;-79
2022/07/21 02:08:53;;;;;;;3.08;0.80;;;;;;;17.29;68.57;98723.59;4833681;29;20485;-78
2022/07/21 02:11:20;;;;;;;0.90;0.75;;;;;;;17.33;68.96;98729.53;4827390;29;20034;-79
2022/07/21 02:13:46;;;;;;;3.13;0.80;;;;;;;17.34;68.74;98714.63;4832599;29;20042;-80
2022/07/21 02:16:13;;;;;;;4.15;1.00;;;;;;;17.38;68.60;98727.50;4832847;29;20077;-78
2022/07/21 02:18:41;;;;;;;2.15;0.80;;;;;;;17.40;68.62;98728.28;4832600;29;20092;-79
2022/07/21 02:21:08;;;;;;;0.70;0.70;;;;;;;17.40;68.65;98730.91;4841711;29;20077;-77
2022/07/21 02:23:34;;;;;;;1.58;0.80;;;;;;;17.36;68.62;98726.72;4843693;29;20042;-78
2022/07/21 02:26:01;;;;;;;1.13;0.90;;;;;;;17.30;68.58;98724.47;4834143;29;21190;-78
2022/07/21 02:28:27;;;;;;;1.02;0.88;;;;;;;17.31;68.66;98724.38;4817147;29;20042;-80
2022/07/21 02:30:54;;;;;;;1.52;1.00;;;;;;;17.31;68.73;98729.63;4826562;29;20046;-78
2022/07/21 02:33:21;;;;;;;1.20;0.90;;;;;;;17.30;68.85;98724.47;4832580;29;20099;-78
2022/07/21 02:35:47;;;;;;;1.88;0.90;;;;;;;17.29;68.86;98725.38;4831699;29;20513;-79
2022/07/21 02:38:14;;;;;;;1.38;0.80;;;;;;;17.30;68.90;98722.66;4832768;29;20101;-78
2022/07/21 02:40:41;;;;;;;1.13;1.00;;;;;;;17.33;68.83;98726.06;4824670;29;20494;-79
2022/07/21 02:43:07;;;;;;;1.63;1.00;;;;;;;17.29;68.95;98717.50;4833153;29;20049;-80
2022/07/21 02:45:34;;;;;;;1.58;1.10;;;;;;;17.36;68.79;98732.00;4831500;29;20053;-81
2022/07/21 02:48:05;;;;;;;3.95;1.10;;;;;;;17.35;68.80;98724.19;4830832;29;20050;-79
2022/07/21 02:50:33;;;;;;;;;;;;;;;17.35;68.89;98727.66;4818243;29;20057;-78
2022/07/21 02:53:01;;;;;;;2.25;1.23;;;;;;;17.29;68.79;98718.34;4830434;29;20373;-78
2022/07/21 02:55:27;;;;;;;1.88;1.20;;;;;;;17.35;69.05;98724.19;4813344;29;20041;-80
2022/07/21 02:58:05;;;;;;;2.05;1.30;;;;;;;17.36;68.88;98726.72;4829255;29;20050;-78
2022/07/21 03:00:31;;;;;;;2.30;1.30;;;;;;;17.34;69.01;98723.34;4827932;29;20045;-79
2022/07/21 03:02:57;;;;;;;3.25;1.50;;;;;;;17.37;68.93;98723.19;4829410;29;20177;-77
2022/07/21 03:05:23;;;;;;;4.22;1.90;;;;;;;17.35;69.15;98729.47;4829837;29;20098;-81
2022/07/21 03:07:50;;;;;;;3.53;1.90;;;;;;;17.28;69.15;98718.44;4818007;29;20082;-80
2022/07/21 03:10:16;;;;;;;2.92;1.60;;;;;;;17.22;69.32;98722.22;4838970;29;20042;-80
2022/07/21 03:12:42;;;;;;;3.10;1.88;;;;;;;17.13;69.38;98720.09;4826164;29;20066;-79
2022/07/21 03:15:08;;;;;;;2.10;1.60;;;;;;;17.02;69.35;98712.78;4833338;29;20042;-79
2022/07/21 03:17:35;;;;;;;3.30;1.85;;;;;;;16.99;69.56;98713.78;4842776;29;20046;-79
2022/07/21 03:20:01;;;;;;;2.88;2.20;;;;;;;16.97;70.07;98710.41;4827014;29;20070;-78
2022/07/21 03:22:29;;;;;;;2.40;1.80;;;;;;;17.00;69.86;98712.00;4829912;29;20050;-78
2022/07/21 03:24:55;;;;;;;3.13;2.00;;;;;;;16.97;69.83;98699.91;4830655;29;20038;-80
2022/07/21 03:27:21;;;;;;;3.67;2.50;;;;;;;17.02;70.11;98703.09;4814861;29;20138;-79
2022/07/21 03:29:47;;;;;;;5.93;2.60;;;;;;;17.00;70.18;98698.88;4839009;29;20050;-78
2022/07/21 03:32:14;;;;;;;4.25;2.00;;;;;;;17.05;70.43;98696.84;4849561;29;20069;-79
2022/07/21 03:34:40;;;;;;;4.60;2.35;;;;;;;17.08;70.23;98711.59;4839326;29;20051;-79
2022/07/21 03:37:06;;;;;;;4.63;2.00;;;;;;;17.02;70.07;98702.28;4814213;29;20050;-81
2022/07/21 03:39:32;;;;;;;5.25;1.90;;;;;;;17.04;70.54;98713.56;4828941;29;20071;-78
2022/07/21 03:41:59;;;;;;;2.40;1.98;;;;;;;17.07;70.32;98705.50;4829642;29;20077;-80
2022/07/21 03:44:25;;;;;;;3.67;2.10;;;;;;;17.06;70.70;98711.69;4830812;29;20084;-80
2022/07/21 03:46:51;;;;;;;3.00;1.90;;;;;;;17.07;70.43;98705.50;4831396;29;20051;-80
2022/07/21 03:49:17;;;;;;;2.10;1.80;;;;;;;17.08;70.60;98711.59;4827680;29;20049;-80
2022/07/21 03:51:43;;;;;;;5.05;2.05;;;;;;;17.14;70.77;98711.28;4830874;29;20091;-83
2022/07/21 03:54:09;;;;;;;4.25;1.95;;;;;;;17.14;70.65;98703.41;4827624;29;20057;-81
2022/07/21 03:56:36;;;;;;;3.58;2.20;;;;;;;17.13;70.45;98702.53;4826663;29;20041;-82
2022/07/21 03:59:02;;;;;;;3.00;2.30;;;;;;;17.04;70.53;98705.66;4812710;29;20106;-79
2022/07/21 04:01:28;;;;;;;6.20;2.42;;;;;;;16.98;70.63;98700.72;4827598;29;20513;-84
2022/07/21 04:03:54;;;;;;;5.55;2.72;;;;;;;16.98;70.82;98713.88;4811067;29;20048;-84
2022/07/21 04:06:20;;;;;;;5.90;2.83;;;;;;;16.88;71.13;98699.50;4810542;29;20046;-80
2022/07/21 04:08:46;;;;;;;5.85;2.70;;;;;;;16.85;71.50;98703.97;4826752;29;20086;-79
2022/07/21 04:11:13;;;;;;;5.40;2.80;;;;;;;16.86;71.57;98708.31;4828391;29;20042;-81
2022/07/21 04:13:39;;;;;;;4.03;3.30;;;;;;;16.91;71.95;98707.19;4825752;29;20509;-79
2022/07/21 04:16:05;;;;;;;4.85;2.88;;;;;;;16.91;72.25;98710.69;4829359;29;20049;-80
2022/07/21 04:18:31;;;;;;;3.50;2.90;;;;;;;16.95;72.58;98711.38;4811796;29;20100;-77
2022/07/21 04:20:58;;;;;;;4.57;2.80;;;;;;;16.94;72.24;98713.16;4828631;29;20090;-79
2022/07/21 04:23:24;;;;;;;4.22;2.97;;;;;;;16.94;72.74;98717.53;4829700;29;20038;-82
2022/07/21 04:25:50;;;;;;;4.47;2.88;;;;;;;16.96;73.01;98727.09;4828537;29;20046;-79
2022/07/21 04:28:16;;;;;;;2.97;2.50;;;;;;;16.92;72.95;98729.91;4828904;29;20099;-81
2022/07/21 04:30:42;;;;;;;4.72;2.70;;;;;;;16.85;73.38;98724.13;4829008;29;20050;-78
2022/07/21 04:33:08;;;;;;;3.05;2.40;;;;;;;16.76;73.50;98707.06;4826809;29;20068;-78
2022/07/21 04:35:35;;;;;;;4.40;2.70;;;;;;;16.80;73.90;98721.75;4811728;29;20053;-79
2022/07/21 04:38:01;;;;;;;2.85;2.22;;;;;;;16.81;74.11;98714.72;4826396;29;20045;-78
2022/07/21 04:40:28;;;;;;;4.57;2.58;;;;;;;16.79;74.11;98720.06;4822749;29;20171;-78
2022/07/21 04:42:54;;;;;;;3.00;2.17;;;;;;;16.85;74.44;98722.38;4823935;29;20042;-80
2022/07/21 04:45:20;;;;;;;3.65;2.13;;;;;;;16.83;74.52;98718.09;4831898;29;20450;-78
2022/07/21 04:47:52;;;;;;;3.38;2.10;;;;;;;16.84;74.63;98709.28;4828692;29;20038;-78
2022/07/21 04:50:20;;;;;;;3.33;2.15;;;;;;;16.91;74.92;98720.31;4811178;29;20050;-80
2022/07/21 04:52:49;;;;;;;3.88;2.65;;;;;;;16.83;74.95;98711.09;4827599;29;20042;-82
2022/07/21 04:55:16;;;;;;;3.95;2.63;;;;;;;16.91;75.17;98721.19;4838784;29;20553;-76
2022/07/21 04:57:45;;;;;;;3.95;2.55;;;;;;;16.82;75.04;98706.75;4833914;29;20049;-78
2022/07/21 05:00:14;;;;;;;3.42;2.33;;;;;;;16.86;75.31;98724.06;4829073;29;20054;-78
2022/07/21 05:02:41;;;;;;;1.50;1.40;;;;;;;16.78;75.16;98715.72;4827447;29;20041;-79
2022/07/21 05:05:08;;;;;;;2.47;1.63;;;;;;;16.71;75.65;98701.19;4827655;29;20071;-79
2022/07/21 05:07:34;;;;;;;3.28;1.90;;;;;;;16.76;75.18;98712.31;4828163;29;20094;-79
2022/07/21 05:10:09;;;;;;;3.70;2.05;;;;;;;16.78;75.53;98713.09;4827808;29;20050;-78
2022/07/21 05:12:35;;;;;;;2.83;2.20;;;;;;;16.76;75.45;98719.38;4820848;29;20460;-81
2022/07/21 05:15:03;;;;;;;4.43;2.53;;;;;;;16.62;75.50;98701.69;4812461;29;20099;-81
2022/07/21 05:17:30;;;;;;;3.42;2.25;;;;;;;16.69;75.81;98718.81;4828584;29;20074;-80
2022/07/21 05:19:56;;;;;;;2.47;2.28;;;;;;;16.59;75.38;98704.47;4799732;29;20114;-79
2022/07/21 05:22:22;;;;;;;2.70;1.95;;;;;;;16.66;75.77;98717.22;4826779;29;20042;-76
2022/07/21 05:24:48;;;;;;;2.75;2.05;;;;;;;16.55;75.78;98709.88;4825010;29;20046;-80
2022/07/21 05:27:15;;;;;;;2.65;2.42;;;;;;;16.61;75.97;98726.25;4826333;29;20065;-81
2022/07/21 05:29:41;;;;;;;3.47;2.20;;;;;;;16.53;75.97;98719.59;4811877;29;20064;-79
2022/07/21 05:32:07;;;;;;;3.25;1.90;;;;;;;16.49;75.99;98718.06;4814310;29;20046;-79
2022/07/21 05:34:34;;;;;;;2.65;2.03;;;;;;;16.48;76.25;98724.22;4823062;29;20148;-76
2022/07/21 05:37:00;;;;;;;5.15;2.38;;;;;;;16.45;76.61;98715.66;4825825;29;20046;-78
2022/07/21 05:39:26;;;;;;;5.80;2.28;;;;;;;16.53;76.74;98722.22;4826725;29;20098;-79
2022/07/21 05:41:52;;;;;;;3.70;2.25;;;;;;;16.56;76.84;98729.97;4840810;29;20038;-80
2022/07/21 05:44:18;;;;;;;4.78;3.00;;;;;;;16.50;76.70;98711.88;4841733;29;20046;-79
2022/07/21 05:46:44;;;;;;;6.18;2.95;;;;;;;16.46;76.42;98718.19;4829530;29;20364;-79
2022/07/21 05:49:11;;;;;;;6.80;2.85;;;;;;;16.48;77.09;98711.09;4819297;29;20054;-78
2022/07/21 05:51:37;;;;;;;3.95;2.72;;;;;;;16.56;76.82;98724.69;4834374;29;20038;-79
2022/07/21 05:54:04;;;;;;;3.60;2.50;;;;;;;16.65;77.34;98725.19;4826505;29;20046;-81
2022/07/21 05:56:30;;;;;;;4.65;2.72;;;;;;;16.78;77.50;98715.72;4826010;29;20058;-78
2022/07/21 05:58:56;;;;;;;3.65;2.30;;;;;;;16.96;77.43;98721.84;4827020;29;20042;-78
2022/07/21 06:01:22;;;;;;;2.40;1.70;;;;;;;16.97;77.16;98710.41;4826422;29;20038;-75
2022/07/21 06:03:50;;;;;;;2.78;1.83;;;;;;;17.13;77.39;98720.09;4827532;29;20045;-82
2022/07/21 06:06:18;;;;;;;2.13;1.80;;;;;;;17.24;77.45;98722.97;4829573;29;20038;-80
2022/07/21 06:08:46;;;;;;;3.10;2.00;;;;;;;17.36;77.47;98718.84;4829228;29;20514;-78
2022/07/21 06:11:15;;;;;;;2.50;2.30;;;;;;;17.34;76.83;98725.97;4810410;29;20045;-80
2022/07/21 06:13:42;;;;;;;2.78;2.00;;;;;;;17.15;75.90;98739.25;4823569;29;20066;-79
2022/07/21 06:16:08;;;;;;;4.47;2.20;;;;;;;16.89;76.94;98722.19;4826112;29;20598;-79
2022/07/21 06:18:35;;;;;;;1.30;1.20;;;;;;;17.09;77.53;98740.44;4817855;29;20434;-78
2022/07/21 06:21:03;;;;;;;1.45;1.20;;;;;;;17.38;77.69;98729.31;4835615;29;20064;-80
2022/07/21 06:23:29;;;;;;;1.40;1.02;;;;;;;17.99;78.00;98737.38;4833208;29;20385;-80
2022/07/21 06:25:56;;;;;;;0.85;0.80;;;;;;;18.38;76.84;98737.84;4839950;29;20062;-78
2022/07/21 06:28:23;;;;;;;0.80;0.80;;;;;;;18.51;76.99;98746.72;4835980;29;20109;-81
2022/07/21 06:30:50;;;;;;;1.20;0.85;;;;;;;18.71;76.48;98742.91;4844521;29;20034;-78
2022/07/21 06:33:17;;;;;;;1.42;1.00;;;;;;;18.76;75.40;98725.03;4847963;29;20048;-78
2022/07/21 06:35:43;;;;;;;1.02;0.80;;;;;;;18.94;75.51;98741.53;4841528;29;20042;-79
2022/07/21 06:38:09;;;;;;;1.10;0.88;;;;;;;19.23;75.42;98746.84;4850625;29;20081;-80
2022/07/21 06:40:35;;;;;;;1.17;0.98;;;;;;;19.40;74.78;98750.22;4849648;29;20049;-79
2022/07/21 06:43:02;;;;;;;4.32;3.92;;;;;;;19.78;74.59;98748.75;4824626;29;20046;-78
2022/07/21 06:45:28;;;;;;;10.38;9.27;;;;;;;20.00;73.17;98749.09;4812980;29;20073;-76
2022/07/21 06:48:05;;;;;;;14.32;12.82;;;;;;;19.81;71.00;98741.47;4846726;29;20042;-80
2022/07/21 06:50:31;;;;;;;12.60;11.27;;;;;;;19.62;71.19;98762.94;4842243;29;20153;-80
2022/07/21 06:52:58;;;;;;;11.95;10.85;;;;;;;19.46;71.65;98759.53;4833084;29;20038;-80
2022/07/21 06:55:24;;;;;;;4.22;3.83;;;;;;;19.56;70.85;98756.22;4817380;29;20052;-80
2022/07/21 06:57:50;;;;;;;4.20;3.22;;;;;;;19.92;71.21;98761.94;4829470;29;20174;-79
2022/07/21 07:00:17;;;;;;;3.17;2.42;;;;;;;20.08;70.06;98756.53;4832713;29;20050;-79
2022/07/21 07:02:44;;;;;;;2.30;1.40;;;;;;;20.22;68.55;98763.56;4827971;29;20090;-79
2022/07/21 07:05:10;;;;;;;2.08;1.88;;;;;;;20.47;69.66;98748.72;4828032;29;20054;-78
2022/07/21 07:07:37;;;;;;;2.40;1.40;;;;;;;20.56;68.97;98744.63;4834873;29;20127;-77
2022/07/21 07:10:04;;;;;;;6.40;4.50;;;;;;;20.67;67.67;98765.88;4830779;29;20054;-77
2022/07/21 07:12:30;;;;;;;5.18;3.50;;;;;;;20.62;67.46;98768.00;4827000;29;20038;-79
2022/07/21 07:14:56;;;;;;;5.93;5.32;;;;;;;20.49;66.37;98775.03;4811676;29;20073;-77
2022/07/21 07:17:22;;;;;;;8.15;7.35;;;;;;;20.16;65.68;98775.38;4822551;29;20581;-81
2022/07/21 07:19:49;;;;;;;7.78;5.32;;;;;;;19.74;66.40;98792.13;4828779;29;20133;-78
2022/07/21 07:22:16;;;;;;;8.95;7.50;;;;;;;19.85;66.75;98781.75;4812241;29;20076;-77
2022/07/21 07:24:42;;;;;;;10.52;6.63;;;;;;;19.90;67.10;98789.41;4824452;29;20058;-78
2022/07/21 07:27:09;;;;;;;5.70;2.88;;;;;;;19.86;66.03;98802.75;4829390;29;20052;-76
2022/07/21 07:29:35;;;;;;;2.42;2.20;;;;;;;19.71;67.03;98803.72;4831473;29;20106;-78
2022/07/21 07:32:02;;;;;;;1.40;1.30;;;;;;;19.81;66.34;98810.09;4829903;29;21115;-80
2022/07/21 07:34:28;;;;;;;1.95;1.60;;;;;;;20.05;67.54;98806.88;4813050;29;20556;-80
2022/07/21 07:36:54;;;;;;;1.33;1.10;;;;;;;20.49;65.91;98801.47;4828571;29;20038;-78
2022/07/21 07:39:20;;;;;;;1.58;1.40;;;;;;;21.00;66.86;98800.72;4810959;29;20458;-78
2022/07/21 07:41:46;;;;;;;1.98;1.60;;;;;;;21.39;65.66;98801.63;4820461;29;20044;-79
2022/07/21 07:44:14;;;;;;;3.22;2.75;;;;;;;21.19;63.22;98814.38;4823757;29;20148;-78
2022/07/21 07:46:40;;;;;;;1.83;1.67;;;;;;;21.13;63.71;98812.19;4843670;29;20129;-76
2022/07/21 07:49:06;;;;;;;2.05;1.80;;;;;;;21.10;62.57;98822.09;4827627;29;20050;-80
2022/07/21 07:51:32;;;;;;;2.80;1.90;;;;;;;21.24;62.63;98829.09;4826835;29;20034;-79
2022/07/21 07:54:00;;;;;;;2.35;1.88;;;;;;;21.54;63.39;98828.78;4834794;29;20964;-79
2022/07/21 07:56:26;;;;;;;2.90;2.60;;;;;;;22.07;62.33;98831.25;4830546;29;20125;-78
2022/07/21 07:58:52;;;;;;;3.10;2.30;;;;;;;22.29;61.43;98839.44;4827516;29;20046;-76
2022/07/21 08:01:19;;;;;;;4.30;2.28;;;;;;;22.56;60.92;98834.81;4824526;29;20042;-79
2022/07/21 08:03:46;;;;;;;3.15;2.70;;;;;;;22.70;60.06;98838.22;4828178;29;20050;-77
2022/07/21 08:06:12;;;;;;;3.95;3.10;;;;;;;22.85;58.59;98841.53;4827040;29;20466;-77
2022/07/21 08:08:39;;;;;;;3.50;2.80;;;;;;;22.49;58.64;98854.75;4808449;29;20084;-78
2022/07/21 08:11:05;;;;;;;19.05;14.68;;;;;;;22.08;59.27;98843.53;4820533;29;20526;-79
2022/07/21 08:13:31;;;;;;;3.20;2.90;;;;;;;22.00;58.66;98847.69;4826559;29;20054;-79
2022/07/21 08:15:58;;;;;;;12.63;10.30;;;;;;;22.54;59.68;98843.81;4828001;29;20962;-78
2022/07/21 08:18:24;;;;;;;6.28;2.90;;;;;;;24.10;57.98;98835.53;4827088;29;20144;-77
2022/07/21 08:20:50;;;;;;;3.85;2.38;;;;;;;25.64;58.26;98837.00;4803241;29;20046;-78
2022/07/21 08:23:16;;;;;;;3.67;2.03;;;;;;;26.60;55.31;98832.06;4827378;29;20510;-77
2022/07/21 08:25:42;;;;;;;3.75;2.40;;;;;;;27.30;51.62;98823.00;4834951;29;20153;-79
2022/07/21 08:28:09;;;;;;;4.40;2.83;;;;;;;28.59;51.11;98839.22;4839418;29;20064;-82
2022/07/21 08:30:35;;;;;;;11.23;9.18;;;;;;;28.81;48.01;98833.44;4829685;29;20046;-82
2022/07/21 08:33:02;;;;;;;2.00;1.83;;;;;;;28.51;43.47;98830.16;4831107;29;20514;-82
2022/07/21 08:35:28;;;;;;;1.98;1.77;;;;;;;28.97;46.64;98829.22;4810026;29;20050;-81
2022/07/21 08:38:05;;;;;;;3.47;2.75;;;;;;;29.99;44.46;98829.50;4827370;29;20041;-78
2022/07/21 08:40:35;;;;;;;1.85;1.65;;;;;;;30.44;42.95;98835.47;4828556;29;20084;-79
2022/07/21 08:43:01;;;;;;;1.48;1.38;;;;;;;31.96;41.48;98839.50;4810744;29;20356;-78
2022/07/21 08:45:30;;;;;;;1.17;1.17;;;;;;;33.69;39.11;98817.56;4816534;29;20137;-80
2022/07/21 08:47:57;;;;;;;2.72;1.75;;;;;;;34.94;35.94;98839.09;4825657;29;20042;-80
2022/07/21 08:50:26;;;;;;;5.60;4.00;;;;;;;36.12;34.71;98840.22;4818787;29;20050;-82
2022/07/21 08:52:53;;;;;;;1.65;1.50;;;;;;;36.84;32.06;98845.19;4827167;29;20038;-80
2022/07/21 08:55:19;;;;;;;9.63;8.68;;;;;;;37.77;31.51;98835.25;4808847;29;20519;-82
2022/07/21 08:57:45;;;;;;;2.03;1.90;;;;;;;37.98;29.49;98831.44;4825711;29;20108;-82
2022/07/21 09:00:12;;;;;;;8.73;7.65;;;;;;;37.20;29.42;98842.03;4828996;29;20102;-79
2022/07/21 09:02:38;;;;;;;3.33;2.63;;;;;;;37.15;30.37;98849.97;4804683;29;20042;-80
2022/07/21 09:05:08;;;;;;;1.83;1.73;;;;;;;37.14;28.84;98855.59;4826315;29;20078;-81
2022/07/21 09:07:54;;;;;;;1.63;1.20;;;;;;;36.44;28.59;98848.63;4826538;29;20037;-81
2022/07/21 09:10:25;;;;;;;4.35;3.97;;;;;;;35.62;29.58;98867.44;4827064;29;20068;-78
2022/07/21 09:13:02;;;;;;;1.30;1.20;;;;;;;35.17;30.10;98862.38;4825718;29;20146;-81
2022/07/21 09:15:31;;;;;;;1.45;1.30;;;;;;;34.81;29.31;98873.03;4826070;29;20556;-83
2022/07/21 09:18:13;;;;;;;1.63;1.52;;;;;;;36.06;28.08;98863.53;4825478;29;20046;-79
2022/07/21 09:20:48;;;;;;;1.20;1.00;;;;;;;36.16;27.93;98868.56;4824733;29;20238;-82
2022/07/21 09:23:17;;;;;;;3.03;2.38;;;;;;;35.28;29.04;98880.72;4818846;29;20038;-80
2022/07/21 09:25:53;;;;;;;1.15;1.00;;;;;;;34.66;28.74;98883.91;4826651;29;20054;-79
2022/07/21 09:28:28;;;;;;;1.52;1.05;;;;;;;33.19;29.03;98891.69;4826265;29;20141;-80
2022/07/21 09:31:03;;;;;;;2.40;2.20;;;;;;;32.20;31.72;98886.13;4813172;29;20065;-77
2022/07/21 09:33:35;;;;;;;1.33;1.17;;;;;;;31.37;33.18;98886.38;4821986;29;20372;-79
2022/07/21 09:36:14;;;;;;;2.45;1.50;;;;;;;30.53;34.23;98891.81;4824768;29;20056;-80
2022/07/21 09:38:43;;;;;;;2.88;2.20;;;;;;;30.61;35.49;98905.28;4824283;29;20061;-80
2022/07/21 09:41:22;;;;;;;3.65;1.88;;;;;;;32.63;33.61;98900.03;4819000;29;20068;-80
2022/07/21 09:43:51;;;;;;;2.58;1.83;;;;;;;34.63;30.86;98895.13;4831977;29;20046;-78
2022/07/21 09:46:29;;;;;;;3.28;2.22;;;;;;;36.23;29.23;98901.91;4838422;29;20847;-81
2022/07/21 09:49:00;;;;;;;1.58;1.40;;;;;;;35.11;28.90;98904.50;4836933;29;20183;-79
2022/07/21 09:51:29;;;;;;;;;;;;;;;33.34;30.17;98915.97;4820473;29;20490;-77
2022/07/21 09:54:00;;;;;;;3.95;1.90;;;;;;;31.91;32.57;98922.53;4824569;29;20296;-79
2022/07/21 09:56:36;;;;;;;2.45;1.67;;;;;;;30.95;32.47;98926.66;4827317;29;20550;-79
2022/07/21 09:59:04;;;;;;;3.67;2.33;;;;;;;30.19;34.11;98928.44;4826511;29;20082;-79
2022/07/21 10:01:31;;;;;;;4.18;1.70;;;;;;;29.54;34.47;98935.09;4829224;29;20061;-80
2022/07/21 10:04:00;;;;;;;2.50;2.30;;;;;;;28.99;36.25;98943.19;4816007;29;20093;-80
2022/07/21 10:06:32;;;;;;;1.60;1.50;;;;;;;28.55;36.38;98929.66;4819987;29;20053;-78
2022/07/21 10:09:00;;;;;;;3.78;1.70;;;;;;;28.51;37.22;98933.63;4847347;29;20465;-80
2022/07/21 10:11:28;;;;;;;3.63;1.33;;;;;;;28.79;37.21;98929.13;4818444;29;20038;-79
2022/07/21 10:13:55;;;;;;;2.63;1.50;;;;;;;30.35;37.13;98927.66;4829831;29;20054;-80
2022/07/21 10:16:22;;;;;;;2.78;1.30;;;;;;;32.10;33.94;98908.72;4830350;29;20046;-79
2022/07/21 10:19:13;;;;;;;1.50;1.40;;;;;;;34.30;31.10;98914.44;4829405;29;20061;-82
2022/07/21 10:22:20;;;;;;;2.92;1.50;;;;;;;35.85;29.82;98921.28;4828387;29;20077;-79
2022/07/21 10:24:46;;;;;;;2.85;1.55;;;;;;;37.07;28.74;98916.09;4842568;29;21037;-77
2022/07/21 10:27:13;;;;;;;1.55;1.40;;;;;;;37.83;26.70;98908.50;4828010;29;20056;-80
2022/07/21 10:30:00;;;;;;;1.35;1.25;;;;;;;37.88;26.48;98912.44;4827363;29;20054;-80
2022/07/21 10:32:31;;;;;;;3.03;1.40;;;;;;;36.93;26.09;98917.94;4812483;29;20038;-81
2022/07/21 10:35:00;;;;;;;2.50;1.40;;;;;;;36.48;26.62;98910.34;4833155;29;20113;-79
2022/07/21 10:37:39;;;;;;;1.83;1.65;;;;;;;35.02;26.97;98914.59;4829340;29;20054;-78
2022/07/21 10:40:27;;;;;;;2.67;1.55;;;;;;;33.80;28.26;98917.72;4829115;29;20093;-79
2022/07/21 10:42:59;;;;;;;1.63;1.50;;;;;;;32.84;29.87;98926.34;4827015;29;20065;-77
2022/07/21 10:45:39;;;;;;;7.53;1.67;;;;;;;32.58;29.94;98930.19;4828163;29;20076;-79
2022/07/21 10:48:27;;;;;;;1.73;1.40;;;;;;;32.04;30.28;98908.53;4828774;29;20090;-78
2022/07/21 10:50:58;;;;;;;1.95;1.60;;;;;;;31.40;31.62;98924.47;4828754;29;20061;-81
2022/07/21 10:53:24;;;;;;;3.70;1.58;;;;;;;31.29;31.03;98922.16;4832600;29;20042;-79
2022/07/21 10:55:53;;;;;;;1.40;1.30;;;;;;;30.87;31.25;98923.94;4828018;29;20106;-78
2022/07/21 10:58:28;;;;;;;4.05;2.40;;;;;;;30.44;31.53;98926.69;4828520;29;20044;-79
2022/07/21 11:00:58;;;;;;;2.35;1.80;;;;;;;30.05;32.09;98925.38;4818737;29;20041;-78
2022/07/21 11:03:29;;;;;;;2.33;1.83;;;;;;;29.79;32.19;98927.22;4829611;29;20042;-80
2022/07/21 11:06:24;;;;;;;3.08;2.00;;;;;;;29.81;32.52;98926.06;4829083;29;20042;-79
2022/07/21 11:09:17;;;;;;;2.70;1.73;;;;;;;29.73;32.98;98924.16;4827240;29;20042;-81
2022/07/21 11:11:46;;;;;;;2.78;1.40;;;;;;;29.48;32.86;98954.47;4825059;29;20648;-79
2022/07/21 11:14:13;;;;;;;1.70;1.60;;;;;;;28.94;33.64;98958.03;4826921;29;20115;-78
2022/07/21 11:16:56;;;;;;;2.05;1.95;;;;;;;28.22;34.18;98980.94;4827055;29;20051;-81
2022/07/21 11:19:29;;;;;;;3.42;1.60;;;;;;;27.28;35.82;98998.50;4826591;29;20060;-80
2022/07/21 11:21:57;;;;;;;3.10;1.50;;;;;;;26.62;37.48;99010.63;4827132;29;20046;-78
2022/07/21 11:24:25;;;;;;;2.58;1.63;;;;;;;25.80;39.63;99010.50;4827701;29;20109;-79
2022/07/21 11:27:15;;;;;;;3.83;2.03;;;;;;;25.19;41.91;99035.09;4840983;29;20645;-79
2022/07/21 11:29:43;;;;;;;3.08;2.08;;;;;;;24.78;42.83;99030.34;4815960;29;20167;-79
2022/07/21 11:32:11;;;;;;;2.85;1.65;;;;;;;24.71;44.67;99031.84;4829011;29;20046;-81
2022/07/21 11:34:40;;;;;;;7.03;2.65;;;;;;;24.62;44.79;99027.22;4811516;29;20045;-77
2022/07/21 11:37:06;;;;;;;1.85;1.58;;;;;;;24.60;45.85;99013.19;4844227;29;20082;-80
2022/07/21 11:39:33;;;;;;;2.25;2.05;;;;;;;24.70;46.43;99030.13;4827602;29;20049;-78
2022/07/21 11:42:12;;;;;;;1.73;1.63;;;;;;;24.79;46.02;99016.09;4815304;29;20057;-78